sensor_id;sensor_type;location;lat;lon;timestamp;pressure;altitude;pressure_sealevel;temperature;humidity
65546;BME280;52177;55.968;37.498;2023-01-29T00:00:20;99934.03;;;-3.31;73.46
65546;BME280;52177;55.968;37.498;2023-01-29T00:00:51;99934.03;;;-3.31;73.32
65546;BME280;52177;55.968;37.498;2023-01-29T00:01:21;99927.88;;;-3.30;73.10
65546;BME280;52177;55.968;37.498;2023-01-29T00:01:52;99936.63;;;-3.31;73.05
65546;BME280;52177;55.968;37.498;2023-01-29T00:02:22;99934.84;;;-3.31;72.87
65546;BME280;52177;55.968;37.498;2023-01-29T00:02:52;99928.97;;;-3.34;72.70
65546;BME280;52177;55.968;37.498;2023-01-29T00:03:23;99929.88;;;-3.35;72.70
65546;BME280;52177;55.968;37.498;2023-01-29T00:03:53;99923.84;;;-3.36;72.75
65546;BME280;52177;55.968;37.498;2023-01-29T00:04:23;99930.81;;;-3.36;72.70
65546;BME280;52177;55.968;37.498;2023-01-29T00:04:54;99928.13;;;-3.35;72.67
65546;BME280;52177;55.968;37.498;2023-01-29T00:05:24;99932.34;;;-3.32;72.73
65546;BME280;52177;55.968;37.498;2023-01-29T00:05:54;99934.19;;;-3.34;72.58
65546;BME280;52177;55.968;37.498;2023-01-29T00:06:25;99932.41;;;-3.34;72.67
65546;BME280;52177;55.968;37.498;2023-01-29T00:06:55;99923.75;;;-3.34;72.58
65546;BME280;52177;55.968;37.498;2023-01-29T00:07:25;99928.97;;;-3.34;72.50
65546;BME280;52177;55.968;37.498;2023-01-29T00:07:56;99933.31;;;-3.35;72.50
65546;BME280;52177;55.968;37.498;2023-01-29T00:08:26;99930.00;;;-3.37;72.40
65546;BME280;52177;55.968;37.498;2023-01-29T00:08:57;99930.06;;;-3.38;72.45
65546;BME280;52177;55.968;37.498;2023-01-29T00:09:27;99924.84;;;-3.38;72.46
65546;BME280;52177;55.968;37.498;2023-01-29T00:09:58;99928.28;;;-3.38;72.31
65546;BME280;52177;55.968;37.498;2023-01-29T00:10:28;99919.56;;;-3.37;72.45
65546;BME280;52177;55.968;37.498;2023-01-29T00:11:02;99930.81;;;-3.36;72.35
65546;BME280;52177;55.968;37.498;2023-01-29T00:11:34;99932.50;;;-3.35;72.22
65546;BME280;52177;55.968;37.498;2023-01-29T00:12:04;99934.25;;;-3.36;72.17
65546;BME280;52177;55.968;37.498;2023-01-29T00:12:38;99931.72;;;-3.37;71.93
65546;BME280;52177;55.968;37.498;2023-01-29T00:13:08;99924.84;;;-3.38;72.10
65546;BME280;52177;55.968;37.498;2023-01-29T00:13:38;99930.81;;;-3.36;72.15
65546;BME280;52177;55.968;37.498;2023-01-29T00:14:09;99921.31;;;-3.37;72.08
65546;BME280;52177;55.968;37.498;2023-01-29T00:14:39;99925.75;;;-3.40;72.06
65546;BME280;52177;55.968;37.498;2023-01-29T00:15:09;99927.47;;;-3.38;72.21
65546;BME280;52177;55.968;37.498;2023-01-29T00:15:40;99932.66;;;-3.38;72.03
65546;BME280;52177;55.968;37.498;2023-01-29T00:16:11;99926.69;;;-3.41;72.11
65546;BME280;52177;55.968;37.498;2023-01-29T00:16:42;99924.91;;;-3.40;72.23
65546;BME280;52177;55.968;37.498;2023-01-29T00:17:12;99919.81;;;-3.42;71.89
65546;BME280;52177;55.968;37.498;2023-01-29T00:17:42;99920.66;;;-3.41;71.86
65546;BME280;52177;55.968;37.498;2023-01-29T00:18:13;99920.66;;;-3.41;71.92
65546;BME280;52177;55.968;37.498;2023-01-29T00:18:44;99926.69;;;-3.41;72.13
65546;BME280;52177;55.968;37.498;2023-01-29T00:19:14;99923.25;;;-3.41;72.05
65546;BME280;52177;55.968;37.498;2023-01-29T00:19:45;99927.63;;;-3.42;72.17
65546;BME280;52177;55.968;37.498;2023-01-29T00:20:15;99918.09;;;-3.43;72.00
65546;BME280;52177;55.968;37.498;2023-01-29T00:20:46;99921.56;;;-3.42;72.03
65546;BME280;52177;55.968;37.498;2023-01-29T00:21:18;99911.22;;;-3.44;72.20
65546;BME280;52177;55.968;37.498;2023-01-29T00:21:49;99917.19;;;-3.42;72.12
65546;BME280;52177;55.968;37.498;2023-01-29T00:22:19;99917.19;;;-3.42;72.13
65546;BME280;52177;55.968;37.498;2023-01-29T00:22:49;99918.88;;;-3.41;72.26
65546;BME280;52177;55.968;37.498;2023-01-29T00:23:20;99917.94;;;-3.40;72.17
65546;BME280;52177;55.968;37.498;2023-01-29T00:23:50;99910.88;;;-3.37;72.40
65546;BME280;52177;55.968;37.498;2023-01-29T00:24:21;99909.97;;;-3.36;72.39
65546;BME280;52177;55.968;37.498;2023-01-29T00:24:52;99912.47;;;-3.35;72.39
65546;BME280;52177;55.968;37.498;2023-01-29T00:25:22;99908.28;;;-3.37;72.20
65546;BME280;52177;55.968;37.498;2023-01-29T00:25:52;99916.03;;;-3.36;72.14
65546;BME280;52177;55.968;37.498;2023-01-29T00:26:23;99905.59;;;-3.36;72.35
65546;BME280;52177;55.968;37.498;2023-01-29T00:26:54;99912.47;;;-3.35;72.29
65546;BME280;52177;55.968;37.498;2023-01-29T00:27:24;99913.34;;;-3.34;72.17
65546;BME280;52177;55.968;37.498;2023-01-29T00:27:54;99916.72;;;-3.32;72.40
65546;BME280;52177;55.968;37.498;2023-01-29T00:28:25;99920.03;;;-3.30;72.15
65546;BME280;52177;55.968;37.498;2023-01-29T00:28:55;99918.31;;;-3.30;72.25
65546;BME280;52177;55.968;37.498;2023-01-29T00:29:26;99913.94;;;-3.29;72.18
65546;BME280;52177;55.968;37.498;2023-01-29T00:29:56;99919.91;;;-3.27;72.18
65546;BME280;52177;55.968;37.498;2023-01-29T00:30:41;99915.44;;;-3.25;72.26
65546;BME280;52177;55.968;37.498;2023-01-29T00:31:20;99909.28;;;-3.24;72.11
65546;BME280;52177;55.968;37.498;2023-01-29T00:31:51;99909.22;;;-3.23;72.23
65546;BME280;52177;55.968;37.498;2023-01-29T00:32:21;99916.03;;;-3.20;72.18
65546;BME280;52177;55.968;37.498;2023-01-29T00:32:51;99907.38;;;-3.21;72.15
65546;BME280;52177;55.968;37.498;2023-01-29T00:33:23;99905.59;;;-3.20;72.12
65546;BME280;52177;55.968;37.498;2023-01-29T00:33:53;99895.19;;;-3.20;72.08
65546;BME280;52177;55.968;37.498;2023-01-29T00:34:24;99903.75;;;-3.18;72.03
65546;BME280;52177;55.968;37.498;2023-01-29T00:34:54;99895.94;;;-3.18;72.04
65546;BME280;52177;55.968;37.498;2023-01-29T00:35:24;99896.78;;;-3.17;72.07
65546;BME280;52177;55.968;37.498;2023-01-29T00:35:55;99895.00;;;-3.17;72.05
65546;BME280;52177;55.968;37.498;2023-01-29T00:36:26;99897.59;;;-3.17;72.02
65546;BME280;52177;55.968;37.498;2023-01-29T00:36:56;99899.31;;;-3.16;72.09
65546;BME280;52177;55.968;37.498;2023-01-29T00:37:33;99897.53;;;-3.15;72.05
65546;BME280;52177;55.968;37.498;2023-01-29T00:38:04;99898.38;;;-3.15;71.92
65546;BME280;52177;55.968;37.498;2023-01-29T00:38:35;99902.75;;;-3.15;71.98
65546;BME280;52177;55.968;37.498;2023-01-29T00:39:06;99897.53;;;-3.15;71.87
65546;BME280;52177;55.968;37.498;2023-01-29T00:39:39;99893.34;;;-3.18;71.78
65546;BME280;52177;55.968;37.498;2023-01-29T00:40:10;99895.75;;;-3.15;71.88
65546;BME280;52177;55.968;37.498;2023-01-29T00:40:41;99896.69;;;-3.16;71.79
65546;BME280;52177;55.968;37.498;2023-01-29T00:41:31;99900.22;;;-3.17;71.95
65546;BME280;52177;55.968;37.498;2023-01-29T00:42:20;99896.84;;;-3.19;71.74
65546;BME280;52177;55.968;37.498;2023-01-29T00:43:09;99892.56;;;-3.20;71.91
65546;BME280;52177;55.968;37.498;2023-01-29T00:43:58;99890.78;;;-3.20;71.96
65546;BME280;52177;55.968;37.498;2023-01-29T00:44:47;99890.03;;;-3.22;71.73
65546;BME280;52177;55.968;37.498;2023-01-29T00:45:27;99890.13;;;-3.23;71.90
65546;BME280;52177;55.968;37.498;2023-01-29T00:45:57;99884.91;;;-3.23;72.07
65546;BME280;52177;55.968;37.498;2023-01-29T00:46:27;99884.91;;;-3.23;71.87
65546;BME280;52177;55.968;37.498;2023-01-29T00:46:58;99882.47;;;-3.26;71.68
65546;BME280;52177;55.968;37.498;2023-01-29T00:47:29;99881.63;;;-3.27;71.68
65546;BME280;52177;55.968;37.498;2023-01-29T00:48:05;99882.56;;;-3.28;71.66
65546;BME280;52177;55.968;37.498;2023-01-29T00:48:36;99881.72;;;-3.28;71.76
65546;BME280;52177;55.968;37.498;2023-01-29T00:49:07;99886.09;;;-3.29;71.83
65546;BME280;52177;55.968;37.498;2023-01-29T00:49:37;99880.88;;;-3.29;71.83
65546;BME280;52177;55.968;37.498;2023-01-29T00:50:09;99886.91;;;-3.28;71.85
65546;BME280;52177;55.968;37.498;2023-01-29T00:50:40;99880.03;;;-3.29;71.90
65546;BME280;52177;55.968;37.498;2023-01-29T00:51:10;99884.31;;;-3.28;71.79
65546;BME280;52177;55.968;37.498;2023-01-29T00:51:41;99889.63;;;-3.30;71.50
65546;BME280;52177;55.968;37.498;2023-01-29T00:52:11;99887.94;;;-3.31;71.66
65546;BME280;52177;55.968;37.498;2023-01-29T00:52:53;99883.56;;;-3.30;71.64
65546;BME280;52177;55.968;37.498;2023-01-29T00:53:24;99890.78;;;-3.35;70.95
65546;BME280;52177;55.968;37.498;2023-01-29T00:53:54;99886.59;;;-3.38;71.11
65546;BME280;52177;55.968;37.498;2023-01-29T00:54:27;99890.97;;;-3.38;71.30
65546;BME280;52177;55.968;37.498;2023-01-29T00:54:58;99883.22;;;-3.40;71.12
65546;BME280;52177;55.968;37.498;2023-01-29T00:55:29;99891.97;;;-3.41;71.18
65546;BME280;52177;55.968;37.498;2023-01-29T00:55:59;99891.16;;;-3.42;71.26
65546;BME280;52177;55.968;37.498;2023-01-29T00:56:30;99886.75;;;-3.41;71.14
65546;BME280;52177;55.968;37.498;2023-01-29T00:57:01;99891.97;;;-3.41;71.45
65546;BME280;52177;55.968;37.498;2023-01-29T00:57:34;99892.81;;;-3.41;71.55
65546;BME280;52177;55.968;37.498;2023-01-29T00:58:04;99888.44;;;-3.40;71.47
65546;BME280;52177;55.968;37.498;2023-01-29T00:58:34;99883.22;;;-3.40;71.34
65546;BME280;52177;55.968;37.498;2023-01-29T00:59:05;99882.38;;;-3.41;71.52
65546;BME280;52177;55.968;37.498;2023-01-29T00:59:35;99879.78;;;-3.41;71.35
65546;BME280;52177;55.968;37.498;2023-01-29T01:00:09;99880.53;;;-3.38;71.53
65546;BME280;52177;55.968;37.498;2023-01-29T01:00:39;99878.69;;;-3.36;71.44
65546;BME280;52177;55.968;37.498;2023-01-29T01:01:10;99879.53;;;-3.36;71.39
65546;BME280;52177;55.968;37.498;2023-01-29T01:01:40;99875.25;;;-3.37;71.23
65546;BME280;52177;55.968;37.498;2023-01-29T01:02:29;99880.53;;;-3.38;71.28
65546;BME280;52177;55.968;37.498;2023-01-29T01:03:18;99879.19;;;-3.46;71.04
65546;BME280;52177;55.968;37.498;2023-01-29T01:03:48;99885.25;;;-3.45;71.06
65546;BME280;52177;55.968;37.498;2023-01-29T01:04:19;99881.78;;;-3.46;71.15
65546;BME280;52177;55.968;37.498;2023-01-29T01:04:49;99890.53;;;-3.47;71.23
65546;BME280;52177;55.968;37.498;2023-01-29T01:05:20;99887.00;;;-3.46;71.33
65546;BME280;52177;55.968;37.498;2023-01-29T01:06:01;99887.09;;;-3.47;71.32
65546;BME280;52177;55.968;37.498;2023-01-29T01:06:32;99885.50;;;-3.50;71.13
65546;BME280;52177;55.968;37.498;2023-01-29T01:07:02;99894.13;;;-3.49;71.34
65546;BME280;52177;55.968;37.498;2023-01-29T01:07:32;99893.31;;;-3.50;71.31
65546;BME280;52177;55.968;37.498;2023-01-29T01:08:03;99890.69;;;-3.50;71.56
65546;BME280;52177;55.968;37.498;2023-01-29T01:08:53;99887.19;;;-3.49;71.63
65546;BME280;52177;55.968;37.498;2023-01-29T01:09:42;99894.06;;;-3.48;71.48
65546;BME280;52177;55.968;37.498;2023-01-29T01:10:32;99888.78;;;-3.46;71.46
65546;BME280;52177;55.968;37.498;2023-01-29T01:11:05;99893.06;;;-3.45;71.43
65546;BME280;52177;55.968;37.498;2023-01-29T01:11:36;99894.75;;;-3.44;71.41
65546;BME280;52177;55.968;37.498;2023-01-29T01:12:06;99898.19;;;-3.44;71.58
65546;BME280;52177;55.968;37.498;2023-01-29T01:12:36;99893.81;;;-3.43;71.64
65546;BME280;52177;55.968;37.498;2023-01-29T01:13:07;99898.03;;;-3.41;71.55
65546;BME280;52177;55.968;37.498;2023-01-29T01:13:37;99899.78;;;-3.41;71.62
65546;BME280;52177;55.968;37.498;2023-01-29T01:14:08;99898.84;;;-3.40;71.62
65546;BME280;52177;55.968;37.498;2023-01-29T01:14:38;99897.09;;;-3.40;71.52
65546;BME280;52177;55.968;37.498;2023-01-29T01:15:12;99903.94;;;-3.37;71.53
65546;BME280;52177;55.968;37.498;2023-01-29T01:15:42;99894.41;;;-3.38;71.33
65546;BME280;52177;55.968;37.498;2023-01-29T01:16:15;99905.78;;;-3.39;71.29
65546;BME280;52177;55.968;37.498;2023-01-29T01:16:47;99897.94;;;-3.39;71.36
65546;BME280;52177;55.968;37.498;2023-01-29T01:17:18;99899.63;;;-3.38;71.25
65546;BME280;52177;55.968;37.498;2023-01-29T01:17:54;99897.19;;;-3.41;71.20
65546;BME280;52177;55.968;37.498;2023-01-29T01:18:28;99894.66;;;-3.43;71.01
65546;BME280;52177;55.968;37.498;2023-01-29T01:18:59;99891.22;;;-3.43;71.20
65546;BME280;52177;55.968;37.498;2023-01-29T01:19:29;99892.88;;;-3.42;71.38
65546;BME280;52177;55.968;37.498;2023-01-29T01:19:59;99890.38;;;-3.44;71.21
65546;BME280;52177;55.968;37.498;2023-01-29T01:20:32;99893.75;;;-3.42;71.32
65546;BME280;52177;55.968;37.498;2023-01-29T01:21:03;99890.38;;;-3.44;71.16
65546;BME280;52177;55.968;37.498;2023-01-29T01:21:33;99890.38;;;-3.44;71.34
65546;BME280;52177;55.968;37.498;2023-01-29T01:22:03;99888.59;;;-3.43;71.41
65546;BME280;52177;55.968;37.498;2023-01-29T01:22:34;99894.66;;;-3.43;71.40
65546;BME280;52177;55.968;37.498;2023-01-29T01:23:05;99889.44;;;-3.43;71.40
65546;BME280;52177;55.968;37.498;2023-01-29T01:23:35;99885.06;;;-3.42;71.35
65546;BME280;52177;55.968;37.498;2023-01-29T01:24:05;99888.53;;;-3.42;71.29
65546;BME280;52177;55.968;37.498;2023-01-29T01:24:36;99883.22;;;-3.40;71.32
65546;BME280;52177;55.968;37.498;2023-01-29T01:25:07;99888.44;;;-3.40;71.33
65546;BME280;52177;55.968;37.498;2023-01-29T01:25:37;99888.44;;;-3.40;71.34
65546;BME280;52177;55.968;37.498;2023-01-29T01:26:08;99886.75;;;-3.41;71.24
65546;BME280;52177;55.968;37.498;2023-01-29T01:26:40;99879.78;;;-3.41;71.13
65546;BME280;52177;55.968;37.498;2023-01-29T01:27:11;99891.97;;;-3.41;71.27
65546;BME280;52177;55.968;37.498;2023-01-29T01:27:41;99884.22;;;-3.43;71.21
65546;BME280;52177;55.968;37.498;2023-01-29T01:28:12;99889.38;;;-3.41;71.24
65546;BME280;52177;55.968;37.498;2023-01-29T01:28:42;99882.38;;;-3.41;71.33
65546;BME280;52177;55.968;37.498;2023-01-29T01:29:13;99873.81;;;-3.43;71.08
65546;BME280;52177;55.968;37.498;2023-01-29T01:29:44;99879.00;;;-3.43;71.08
65546;BME280;52177;55.968;37.498;2023-01-29T01:30:15;99874.63;;;-3.42;71.07
65546;BME280;52177;55.968;37.498;2023-01-29T01:30:45;99875.66;;;-3.45;71.05
65546;BME280;52177;55.968;37.498;2023-01-29T01:31:16;99873.03;;;-3.45;71.24
65546;BME280;52177;55.968;37.498;2023-01-29T01:31:46;99869.44;;;-3.42;71.12
65546;BME280;52177;55.968;37.498;2023-01-29T01:32:16;99870.28;;;-3.42;70.97
65546;BME280;52177;55.968;37.498;2023-01-29T01:32:47;99872.78;;;-3.40;71.15
65546;BME280;52177;55.968;37.498;2023-01-29T01:33:17;99877.19;;;-3.41;70.96
65546;BME280;52177;55.968;37.498;2023-01-29T01:33:47;99870.28;;;-3.42;70.95
65546;BME280;52177;55.968;37.498;2023-01-29T01:34:18;99872.91;;;-3.42;71.06
65546;BME280;52177;55.968;37.498;2023-01-29T01:34:51;99871.13;;;-3.41;71.02
65546;BME280;52177;55.968;37.498;2023-01-29T01:35:21;99866.81;;;-3.42;70.94
65546;BME280;52177;55.968;37.498;2023-01-29T01:35:52;99875.56;;;-3.43;70.83
65546;BME280;52177;55.968;37.498;2023-01-29T01:36:22;99876.41;;;-3.43;71.15
65546;BME280;52177;55.968;37.498;2023-01-29T01:36:53;99872.13;;;-3.44;70.81
65546;BME280;52177;55.968;37.498;2023-01-29T01:37:25;99879.19;;;-3.46;71.02
65546;BME280;52177;55.968;37.498;2023-01-29T01:37:55;99873.16;;;-3.46;71.15
65546;BME280;52177;55.968;37.498;2023-01-29T01:38:25;99881.72;;;-3.44;71.25
65546;BME280;52177;55.968;37.498;2023-01-29T01:38:56;99868.59;;;-3.43;71.08
65546;BME280;52177;55.968;37.498;2023-01-29T01:39:26;99873.81;;;-3.43;71.14
65546;BME280;52177;55.968;37.498;2023-01-29T01:39:57;99874.75;;;-3.44;71.16
65546;BME280;52177;55.968;37.498;2023-01-29T01:40:27;99874.75;;;-3.44;71.21
65546;BME280;52177;55.968;37.498;2023-01-29T01:40:58;99862.63;;;-3.45;70.91
65546;BME280;52177;55.968;37.498;2023-01-29T01:41:29;99862.63;;;-3.45;71.22
65546;BME280;52177;55.968;37.498;2023-01-29T01:41:59;99863.47;;;-3.44;71.21
65546;BME280;52177;55.968;37.498;2023-01-29T01:42:30;99870.38;;;-3.43;71.20
65546;BME280;52177;55.968;37.498;2023-01-29T01:43:01;99867.75;;;-3.43;71.10
65546;BME280;52177;55.968;37.498;2023-01-29T01:43:53;99860.88;;;-3.44;71.23
65546;BME280;52177;55.968;37.498;2023-01-29T01:44:53;99862.63;;;-3.45;71.01
65546;BME280;52177;55.968;37.498;2023-01-29T01:45:33;99859.50;;;-3.51;70.78
65546;BME280;52177;55.968;37.498;2023-01-29T01:46:04;99858.66;;;-3.52;71.02
65546;BME280;52177;55.968;37.498;2023-01-29T01:46:36;99860.44;;;-3.52;71.16
65546;BME280;52177;55.968;37.498;2023-01-29T01:47:07;99861.19;;;-3.50;71.09
65546;BME280;52177;55.968;37.498;2023-01-29T01:47:42;99856.81;;;-3.50;71.29
65546;BME280;52177;55.968;37.498;2023-01-29T01:48:19;99861.97;;;-3.48;71.17
65546;BME280;52177;55.968;37.498;2023-01-29T01:48:55;99859.25;;;-3.47;71.15
65546;BME280;52177;55.968;37.498;2023-01-29T01:49:27;99857.50;;;-3.46;71.26
65546;BME280;52177;55.968;37.498;2023-01-29T01:50:02;99853.13;;;-3.46;71.17
65546;BME280;52177;55.968;37.498;2023-01-29T01:50:42;99860.13;;;-3.46;71.25
65546;BME280;52177;55.968;37.498;2023-01-29T01:51:14;99866.16;;;-3.46;71.14
65546;BME280;52177;55.968;37.498;2023-01-29T01:51:47;99854.81;;;-3.45;71.38
65546;BME280;52177;55.968;37.498;2023-01-29T01:52:19;99856.50;;;-3.44;71.36
65546;BME280;52177;55.968;37.498;2023-01-29T01:52:54;99847.84;;;-3.44;71.17
65546;BME280;52177;55.968;37.498;2023-01-29T01:53:33;99852.19;;;-3.45;71.13
65546;BME280;52177;55.968;37.498;2023-01-29T01:54:30;99850.53;;;-3.46;71.31
65546;BME280;52177;55.968;37.498;2023-01-29T01:55:02;99848.75;;;-3.45;71.22
65546;BME280;52177;55.968;37.498;2023-01-29T01:55:34;99844.38;;;-3.45;71.25
65546;BME280;52177;55.968;37.498;2023-01-29T01:56:08;99848.69;;;-3.44;71.29
65546;BME280;52177;55.968;37.498;2023-01-29T01:56:44;99847.84;;;-3.44;71.22
65546;BME280;52177;55.968;37.498;2023-01-29T01:57:20;99846.06;;;-3.44;71.41
65546;BME280;52177;55.968;37.498;2023-01-29T01:58:03;99845.25;;;-3.44;71.38
65546;BME280;52177;55.968;37.498;2023-01-29T01:58:44;99848.56;;;-3.42;71.28
65546;BME280;52177;55.968;37.498;2023-01-29T01:59:17;99847.75;;;-3.43;71.30
65546;BME280;52177;55.968;37.498;2023-01-29T01:59:52;99847.75;;;-3.43;71.22
65546;BME280;52177;55.968;37.498;2023-01-29T02:00:25;99832.22;;;-3.44;71.37
65546;BME280;52177;55.968;37.498;2023-01-29T02:00:56;99839.09;;;-3.43;71.39
65546;BME280;52177;55.968;37.498;2023-01-29T02:01:26;99836.47;;;-3.43;71.38
65546;BME280;52177;55.968;37.498;2023-01-29T02:01:57;99837.31;;;-3.43;71.37
65546;BME280;52177;55.968;37.498;2023-01-29T02:02:28;99842.63;;;-3.44;71.34
65546;BME280;52177;55.968;37.498;2023-01-29T02:03:18;99839.09;;;-3.43;71.42
65546;BME280;52177;55.968;37.498;2023-01-29T02:04:14;99832.22;;;-3.44;71.35
65546;BME280;52177;55.968;37.498;2023-01-29T02:05:04;99834.72;;;-3.43;71.50
65546;BME280;52177;55.968;37.498;2023-01-29T02:05:54;99832.09;;;-3.43;71.33
65546;BME280;52177;55.968;37.498;2023-01-29T02:06:44;99829.59;;;-3.44;71.20
65546;BME280;52177;55.968;37.498;2023-01-29T02:07:34;99825.38;;;-3.47;71.35
65546;BME280;52177;55.968;37.498;2023-01-29T02:08:30;99824.53;;;-3.47;71.47
65546;BME280;52177;55.968;37.498;2023-01-29T02:09:23;99828.22;;;-3.51;71.24
65546;BME280;52177;55.968;37.498;2023-01-29T02:10:45;99826.63;;;-3.54;71.46
65546;BME280;52177;55.968;37.498;2023-01-29T02:11:16;99829.25;;;-3.54;71.45
65546;BME280;52177;55.968;37.498;2023-01-29T02:11:47;99832.72;;;-3.53;71.57
65546;BME280;52177;55.968;37.498;2023-01-29T02:12:18;99826.56;;;-3.52;71.52
65546;BME280;52177;55.968;37.498;2023-01-29T02:12:50;99824.91;;;-3.53;71.41
65546;BME280;52177;55.968;37.498;2023-01-29T02:13:20;99825.81;;;-3.54;71.43
65546;BME280;52177;55.968;37.498;2023-01-29T02:13:52;99824.91;;;-3.53;71.61
65546;BME280;52177;55.968;37.498;2023-01-29T02:14:23;99825.72;;;-3.53;71.69
65546;BME280;52177;55.968;37.498;2023-01-29T02:14:54;99829.25;;;-3.54;71.55
65546;BME280;52177;55.968;37.498;2023-01-29T02:15:24;99833.44;;;-3.51;71.63
65546;BME280;52177;55.968;37.498;2023-01-29T02:15:55;99825.63;;;-3.51;71.43
65546;BME280;52177;55.968;37.498;2023-01-29T02:16:25;99816.97;;;-3.52;71.41
65546;BME280;52177;55.968;37.498;2023-01-29T02:16:56;99822.19;;;-3.52;71.39
65546;BME280;52177;55.968;37.498;2023-01-29T02:17:26;99826.50;;;-3.51;71.39
65546;BME280;52177;55.968;37.498;2023-01-29T02:17:57;99817.06;;;-3.53;71.34
65546;BME280;52177;55.968;37.498;2023-01-29T02:18:27;99823.19;;;-3.54;71.36
65546;BME280;52177;55.968;37.498;2023-01-29T02:18:57;99822.38;;;-3.55;71.55
65546;BME280;52177;55.968;37.498;2023-01-29T02:20:27;99815.44;;;-3.56;71.55
65546;BME280;52177;55.968;37.498;2023-01-29T02:23:32;99811.09;;;-3.55;71.55
65546;BME280;52177;55.968;37.498;2023-01-29T02:24:20;99814.63;;;-3.56;71.58
65546;BME280;52177;55.968;37.498;2023-01-29T02:25:23;99819.94;;;-3.58;71.64
65546;BME280;52177;55.968;37.498;2023-01-29T02:26:17;99819.00;;;-3.57;71.77
65546;BME280;52177;55.968;37.498;2023-01-29T02:27:42;99801.78;;;-3.59;71.65
65546;BME280;52177;55.968;37.498;2023-01-29T02:29:13;99810.53;;;-3.61;71.51
65546;BME280;52177;55.968;37.498;2023-01-29T02:31:15;99803.38;;;-3.57;71.57
65546;BME280;52177;55.968;37.498;2023-01-29T02:32:08;99807.75;;;-3.57;71.48
65546;BME280;52177;55.968;37.498;2023-01-29T02:32:59;99794.72;;;-3.57;71.62
65546;BME280;52177;55.968;37.498;2023-01-29T02:34:02;99793.00;;;-3.58;71.59
65546;BME280;52177;55.968;37.498;2023-01-29T02:35:47;99802.78;;;-3.62;71.41
65546;BME280;52177;55.968;37.498;2023-01-29T02:37:04;99799.34;;;-3.63;71.46
65546;BME280;52177;55.968;37.498;2023-01-29T02:39:27;99792.94;;;-3.57;71.52
65546;BME280;52177;55.968;37.498;2023-01-29T02:40:15;99793.13;;;-3.60;71.37
65546;BME280;52177;55.968;37.498;2023-01-29T02:42:27;99779.91;;;-3.57;71.71
65546;BME280;52177;55.968;37.498;2023-01-29T02:43:07;99780.84;;;-3.58;71.48
65546;BME280;52177;55.968;37.498;2023-01-29T02:43:50;99775.66;;;-3.58;71.61
65546;BME280;52177;55.968;37.498;2023-01-29T02:44:37;99774.78;;;-3.58;71.40
65546;BME280;52177;55.968;37.498;2023-01-29T02:45:14;99774.69;;;-3.57;71.44
65546;BME280;52177;55.968;37.498;2023-01-29T02:47:08;99774.53;;;-3.54;71.60
65546;BME280;52177;55.968;37.498;2023-01-29T02:47:46;99779.72;;;-3.54;71.47
65546;BME280;52177;55.968;37.498;2023-01-29T02:48:22;99778.81;;;-3.53;71.21
65546;BME280;52177;55.968;37.498;2023-01-29T02:48:58;99780.50;;;-3.52;71.33
65546;BME280;52177;55.968;37.498;2023-01-29T02:50:46;99776.38;;;-3.56;71.15
65546;BME280;52177;55.968;37.498;2023-01-29T02:51:35;99769.50;;;-3.57;71.21
65546;BME280;52177;55.968;37.498;2023-01-29T02:53:47;99770.50;;;-3.59;71.10
65546;BME280;52177;55.968;37.498;2023-01-29T02:54:31;99763.69;;;-3.62;71.21
65546;BME280;52177;55.968;37.498;2023-01-29T02:55:12;99763.69;;;-3.62;71.32
65546;BME280;52177;55.968;37.498;2023-01-29T02:55:56;99766.31;;;-3.62;71.22
65546;BME280;52177;55.968;37.498;2023-01-29T02:56:47;99753.28;;;-3.62;71.35
65546;BME280;52177;55.968;37.498;2023-01-29T02:57:39;99764.47;;;-3.60;71.14
65546;BME280;52177;55.968;37.498;2023-01-29T02:58:29;99767.91;;;-3.59;71.21
65546;BME280;52177;55.968;37.498;2023-01-29T02:59:15;99764.47;;;-3.60;71.19
65546;BME280;52177;55.968;37.498;2023-01-29T02:59:54;99764.53;;;-3.62;71.23
65546;BME280;52177;55.968;37.498;2023-01-29T03:00:30;99761.03;;;-3.61;71.32
65546;BME280;52177;55.968;37.498;2023-01-29T03:01:10;99761.03;;;-3.61;71.15
65546;BME280;52177;55.968;37.498;2023-01-29T03:01:47;99758.56;;;-3.64;71.35
65546;BME280;52177;55.968;37.498;2023-01-29T03:02:24;99751.59;;;-3.63;71.41
65546;BME280;52177;55.968;37.498;2023-01-29T03:03:02;99759.31;;;-3.62;71.38
65546;BME280;52177;55.968;37.498;2023-01-29T03:03:45;99755.06;;;-3.63;71.37
65546;BME280;52177;55.968;37.498;2023-01-29T03:04:24;99755.88;;;-3.62;71.22
65546;BME280;52177;55.968;37.498;2023-01-29T03:05:00;99756.66;;;-3.60;71.36
65546;BME280;52177;55.968;37.498;2023-01-29T03:05:59;99757.47;;;-3.59;71.26
65546;BME280;52177;55.968;37.498;2023-01-29T03:06:34;99757.41;;;-3.58;71.37
65546;BME280;52177;55.968;37.498;2023-01-29T03:07:09;99756.47;;;-3.57;71.41
65546;BME280;52177;55.968;37.498;2023-01-29T03:08:06;99755.63;;;-3.57;71.39
65546;BME280;52177;55.968;37.498;2023-01-29T03:08:45;99752.19;;;-3.58;71.22
65546;BME280;52177;55.968;37.498;2023-01-29T03:09:28;99755.53;;;-3.56;71.19
65546;BME280;52177;55.968;37.498;2023-01-29T03:10:02;99749.47;;;-3.56;71.20
65546;BME280;52177;55.968;37.498;2023-01-29T03:10:40;99749.47;;;-3.56;70.92
65546;BME280;52177;55.968;37.498;2023-01-29T03:11:13;99750.25;;;-3.54;70.87
65546;BME280;52177;55.968;37.498;2023-01-29T03:11:53;99742.59;;;-3.57;71.01
65546;BME280;52177;55.968;37.498;2023-01-29T03:12:28;99740.06;;;-3.59;71.16
65546;BME280;52177;55.968;37.498;2023-01-29T03:13:12;99744.28;;;-3.56;70.96
65546;BME280;52177;55.968;37.498;2023-01-29T03:13:54;99742.69;;;-3.59;70.97
65546;BME280;52177;55.968;37.498;2023-01-29T03:14:34;99746.22;;;-3.60;70.98
65546;BME280;52177;55.968;37.498;2023-01-29T03:15:29;99745.41;;;-3.61;71.20
65546;BME280;52177;55.968;37.498;2023-01-29T03:16:07;99741.00;;;-3.60;71.13
65546;BME280;52177;55.968;37.498;2023-01-29T03:16:49;99734.22;;;-3.63;71.21
65546;BME280;52177;55.968;37.498;2023-01-29T03:17:24;99735.88;;;-3.62;71.25
65546;BME280;52177;55.968;37.498;2023-01-29T03:18:00;99741.84;;;-3.59;71.31
65546;BME280;52177;55.968;37.498;2023-01-29T03:18:36;99731.44;;;-3.59;71.16
65546;BME280;52177;55.968;37.498;2023-01-29T03:19:34;99729.00;;;-3.63;71.04